x

Settlement Point, Gbi (spgf1) Weather Station

12:00pm - Fri 28th Aug 2015 All times are EDT. -4 hours from GMT.

  • Wind
    11mph, 14mph gusts
  • Air Temp 86°f
  • Sea Pressure 1017.8mb
  • Settlement Point, Gbi
  • Settlement Point, Gbi

More Historic Weather Station data

Upgrade to MSW Pro to gain access to the past 30 days of data for over 8000 Wavebouys and Weather Stations around the globe.

Join Pro

Comparision Forecast

View Surf forecast
   
Fri 08/28 12:00pm 11 14 mph 1017.8mb 86f
11:00am 7 9 mph 1017.8mb 86f
10:00am 9 13 mph 1017.1mb 85f
9:00am 8 10 mph 1016.9mb 85f
8:00am 5 6 mph 1016.7mb 83f
7:00am 7 8 mph 1016.1mb 82f
6:00am 7 9 mph 1015.9mb 82f
5:00am 6 7 mph 1015.4mb 81f
4:00am 7 8 mph 1015.1mb 81f
3:00am 10 14 mph 1015.5mb 81f
2:00am 7 9 mph 1016.1mb 79f
1:00am 7 8 mph 1016.5mb 80f
12:00am 7 8 mph 1017.1mb 80f
Thu 08/27 11:00pm 6 7 mph 1017.4mb 80f
10:00pm 6 8 mph 1017.2mb 81f
9:00pm 6 7 mph 1016.1mb 80f
8:00pm 3 5 mph 1015.2mb 78f
7:00pm 14 15 mph 1015.4mb 78f
6:00pm 8 9 mph 1015.5mb 82f
5:00pm 3
mph
1014.9mb 81f
4:00pm 5 6 mph 1014.7mb 79f
3:00pm  -  mph 1015mb 79f
2:00pm 6 7 mph 1016mb 78f
1:00pm 17 20 mph 1017mb 77f
12:00pm 11 15 mph 1016.2mb 84f
11:00am 7 10 mph 1016.3mb 82f
10:00am 7 8 mph 1015.8mb 80f
9:00am 18 22 mph 1015.4mb 81f
8:00am 13 15 mph 1014.5mb 80f
7:00am 9 10 mph 1014.9mb 79f
6:00am 11 15 mph 1014.8mb 78f
5:00am 6 7 mph 1014.8mb 79f
4:00am 6 7 mph 1014.2mb 78f
3:00am 14 16 mph 1014.2mb 79f
2:00am 6 7 mph 1015.3mb 78f
1:00am 13 14 mph 1015.4mb 80f
12:00am 9 11 mph 1016.2mb 82f
Wed 08/26 11:00pm 14 15 mph 1016.1mb 81f
10:00pm 11
mph
1016.3mb 83f
9:00pm 8 10 mph 1015.3mb 80f
8:00pm 7 9 mph 1014.9mb 83f
7:00pm 13 15 mph 1013.7mb 84f
6:00pm 9 10 mph 1014.3mb 85f
5:00pm 6
mph
1014.6mb 85f
4:00pm 5 6 mph 1014.9mb 86f
3:00pm 8 9 mph 1015.7mb 86f
2:00pm 6 7 mph 1016mb 85f
1:00pm 8 9 mph 1016.5mb 85f
12:00pm 2 3 mph 1016.4mb 85f
11:00am 2
mph
1016.2mb 84f
10:00am 8 9 mph 1015.7mb 82f
9:00am 10 13 mph 1015.4mb 81f
8:00am 14 16 mph 1014.9mb 82f
7:00am 21 25 mph 1014.7mb 83f
6:00am 6 7 mph 1014.2mb 85f
5:00am 5 6 mph 1013.9mb 84f
4:00am 3
mph
1013.7mb 84f
3:00am 2 3 mph 1014mb 83f
2:00am 5 6 mph 1014.3mb 83f
1:00am 7 9 mph 1014.2mb 83f
12:00am 7 8 mph 1014.3mb 83f
Tue 08/25 11:00pm 7 8 mph 1014.7mb 84f
10:00pm 10 14 mph 1015.7mb 83f
9:00pm 8 10 mph 1014.8mb 86f
8:00pm 7 8 mph 1013.7mb 86f
7:00pm 7
mph
1013.4mb 86f
6:00pm 3 5 mph 1012.9mb 87f
5:00pm 7 8 mph 1013.3mb 87f
4:00pm 2
mph
1014.1mb 87f
3:00pm 2 3 mph 1014.8mb 87f
2:00pm 3 5 mph 1015.2mb 87f
1:00pm 3 5 mph 1015.5mb 87f
12:00pm 6
mph
1015.7mb 87f
11:00am 6 7 mph 1015.5mb 86f
10:00am 5
mph
1015.1mb 86f
9:00am 5 6 mph 1014.9mb 86f
8:00am 2 3 mph 1014.3mb 86f
7:00am 3 5 mph 1013.8mb 83f
6:00am 3 5 mph 1013.4mb 83f
5:00am 5 6 mph 1012.9mb 83f
4:00am 3 5 mph 1012.9mb 84f
3:00am 6 7 mph 1013.1mb 83f
2:00am 6 7 mph 1013.7mb 84f
1:00am 6
mph
1014.7mb 84f
12:00am 6
mph
1014.7mb 84f
Mon 08/24 11:00pm 6 7 mph 1014.6mb 85f
10:00pm 7 8 mph 1014.4mb 85f
9:00pm 8 9 mph 1013.8mb 85f
8:00pm 9 10 mph 1013.2mb 85f
7:00pm 10 13 mph 1012.6mb 86f
6:00pm 8 9 mph 1012.9mb 86f